Latest Weather Observations for Williamtown

IDN60901

Issued at 11:31 am EST Tuesday 21 April 2015 (issued every 10 minutes, with the page automatically refreshed every 10 minutes)

About weather observations | Map of Sydney area stations | Latest observations for Sydney area | Other Formats
Station Details ID: 061078 Name: WILLIAMTOWN RAAF Lat: -32.79 Lon: 151.84 Height: 9.0 m
Data from the previous 72 hours. | See also: Recent months at Williamtown
Date/Time
EST
Tmp

°C
App
Tmp
°C
Dew
Point
°C
Rel
Hum
%
Delta-T

°C
Wind Press
QNH
hPa
Press
MSL
hPa
Rain
since
9 am
mm
Dir
 
Spd
km/h
Gust
km/h
Spd
kts
Gust
kts
21/11:20am 17.7 8.9 16.2 91 0.9 N 57 74 31 40 1014.3 1014.2 5.0
21/11:00am 17.8 8.6 16.1 90 1.0 N 59 85 32 46 1012.9 1012.8 5.0
21/10:44am 17.6 2.3 15.9 90 1.0 SSE 91 106 49 57 1011.8 1011.7 4.4
21/10:30am 17.7 7.0 16.0 90 1.0 N 67 95 36 51 1013.4 1013.3 1.6
21/10:23am 17.9 8.1 16.4 91 0.9 N 63 87 34 47 1012.8 1012.7 1.6
21/10:00am 18.2 6.7 16.4 89 1.1 N 72 98 39 53 1012.8 1012.7 1.6
21/09:30am 18.5 8.2 16.0 85 1.5 N 65 91 35 49 1013.3 1013.2 1.2
21/09:18am 17.7 7.6 16.7 94 0.6 N 65 85 35 46 1013.6 1013.5 0.6
21/09:04am 18.4 8.6 16.4 88 1.2 N 63 82 34 44 1013.4 1013.3 0.0
21/09:03am 18.4 8.5 16.2 87 1.3 N 63 82 34 44 1013.4 1013.3 0.0
21/09:00am 18.6 9.2 16.6 88 1.2 N 61 82 33 44 1013.5 1013.4 155.6
21/08:30am 18.1 8.4 16.6 91 0.9 NNE 63 82 34 44 1013.5 1013.4 155.6
21/08:13am 16.7 6.5 16.5 99 0.1 N 65 89 35 48 1013.8 1013.7 154.6
21/08:00am 16.7 4.3 16.2 97 0.3 N 76 95 41 51 1013.6 1013.5 151.2
21/07:45am 17.3 4.7 15.6 90 1.0 N 76 95 41 51 1013.3 1013.2 149.4
21/07:30am 17.9 5.0 15.7 87 1.3 N 78 100 42 54 1012.8 1012.7 149.4
21/07:00am 17.9 7.1 16.7 93 0.7 N 69 95 37 51 1012.2 1012.1 149.4
21/06:49am 17.2 7.5 16.7 97 0.3 SSE 63 93 34 50 1012.2 1012.1 148.6
21/06:30am 16.7 4.5 15.7 94 0.6 SSE 74 95 40 51 1012.1 1012.0 146.4
21/06:02am 16.9 6.5 15.9 94 0.6 S 65 106 35 57 1011.8 1011.7 145.8
21/05:39am 16.7 3.2 15.3 91 0.8 SSE 80 100 43 54 1012.2 1012.1 144.8
21/05:35am 17.0 3.6 15.5 91 0.9 SSE 80 109 43 59 1012.0 1011.9 144.8
21/05:30am 17.0 4.0 15.6 91 0.8 SSE 78 109 42 59 1012.2 1012.1 144.8
21/05:16am 17.0 3.5 16.2 95 0.5 SSE 82 113 44 61 1011.9 1011.8 144.8
21/05:05am 16.9 8.9 16.6 98 0.2 SSE 54 95 29 51 1011.8 1011.7 144.6
21/05:02am 16.7 8.6 16.5 99 0.1 SSE 54 95 29 51 1011.9 1011.8 144.6
21/05:00am 16.6 8.1 16.4 99 0.1 S 56 95 30 51 1012.1 1012.0 144.4
21/04:30am 16.9 5.9 15.2 90 1.0 S 67 93 36 50 1011.6 1011.5 135.4
21/04:10am 16.3 4.4 15.4 94 0.5 S 72 107 39 58 1011.9 1011.8 134.6
21/04:03am 16.6 5.0 14.7 88 1.1 S 69 96 37 52 1011.5 1011.4 134.4
21/04:00am 16.8 4.9 14.4 86 1.4 S 70 98 38 53 1011.6 1011.5 134.4
21/03:47am 16.8 5.5 14.4 86 1.4 S 67 93 36 50 1011.6 1011.5 134.4
21/03:32am 17.0 6.1 14.4 85 1.5 S 65 98 35 53 1012.0 1011.9 134.2
21/03:30am 17.0 5.7 14.4 85 1.5 S 67 98 36 53 1012.0 1011.9 134.2
21/03:00am 16.7 6.4 15.1 90 0.9 S 63 98 34 53 1012.0 1011.9 134.2
21/02:30am 16.8 6.1 15.1 90 1.0 S 65 91 35 49 1012.5 1012.4 133.0
21/02:00am 17.0 6.2 15.8 93 0.7 S 67 95 36 51 1012.9 1012.8 130.2
21/01:49am 17.0 5.9 16.0 94 0.6 SSE 69 102 37 55 1013.5 1013.4 129.2
21/01:30am 16.5 6.2 16.0 97 0.3 SSE 65 109 35 59 1013.4 1013.3 126.8
21/01:28am 16.5 6.6 16.3 99 0.1 S 63 109 34 59 1013.4 1013.3 126.4
21/01:13am 16.1 6.9 15.9 99 0.1 S 59 83 32 45 1013.3 1013.2 122.6
21/01:00am 16.6 6.6 15.9 96 0.4 S 63 82 34 44 1013.3 1013.2 117.0
21/12:39am 16.5 6.8 15.6 94 0.5 S 61 87 33 47 1013.9 1013.8 114.0
21/12:30am 16.3 7.3 15.6 96 0.4 S 57 82 31 44 1013.8 1013.7 112.8
21/12:00am 16.7 9.0 16.4 98 0.2 S 52 76 28 41 1014.1 1014.0 107.0
 
Date/Time
EST
Tmp

°C
App
Tmp
°C
Dew
Point
°C
Rel
Hum
%
Delta-T

°C
Wind Press
QNH
hPa
Press
MSL
hPa
Rain
since
9 am
mm
Dir
 
Spd
km/h
Gust
km/h
Spd
kts
Gust
kts
20/11:46pm 16.6 10.3 16.1 97 0.3 SSW 44 76 24 41 1014.7 1014.6 101.6
20/11:30pm 17.0 8.7 16.0 94 0.6 S 54 74 29 40 1015.2 1015.1 97.0
20/11:01pm 17.5 10.2 15.6 89 1.1 S 48 70 26 38 1015.9 1015.8 92.8
20/11:00pm 17.5 10.3 15.8 90 1.0 S 48 74 26 40 1016.0 1015.9 92.8
20/10:57pm 17.5 10.3 15.8 90 1.0 S 48 74 26 40 1016.1 1016.0 92.4
20/10:44pm 16.7 6.4 15.0 90 1.0 SSE 63 91 34 49 1016.1 1016.0 91.2
20/10:38pm 17.6 8.4 15.9 90 1.0 SSE 59 82 32 44 1016.1 1016.0 90.6
20/10:31pm 17.7 9.4 15.8 89 1.1 SSE 54 76 29 41 1015.9 1015.8 90.0
20/10:30pm 17.7 9.7 15.8 89 1.1 SSE 52 76 28 41 1015.9 1015.8 90.0
20/10:26pm 17.8 10.2 15.8 88 1.2 SSE 50 70 27 38 1015.9 1015.8 89.8
20/10:01pm 18.0 9.4 16.0 88 1.2 SSE 56 74 30 40 1016.2 1016.1 87.6
20/10:00pm 17.9 9.2 15.9 88 1.2 SSE 56 74 30 40 1016.2 1016.1 87.6
20/09:30pm 17.6 8.7 15.2 86 1.4 SSE 56 83 30 45 1016.1 1016.0 87.4
20/09:23pm 18.1 9.6 16.4 90 1.0 SSE 56 74 30 40 1016.1 1016.0 87.4
20/09:22pm 18.1 9.7 16.6 91 0.9 SSE 56 74 30 40 1016.1 1016.0 87.4
20/09:16pm 17.8 11.7 16.1 90 1.0 S 43 70 23 38 1016.3 1016.2 87.4
20/09:13pm 17.9 13.8 16.4 91 0.9 SSW 33 57 18 31 1016.4 1016.3 87.4
20/09:07pm 17.1 13.6 16.6 97 0.3 SSW 30 50 16 27 1016.6 1016.5 87.0
20/09:00pm 17.0 10.6 16.8 99 0.1 S 46 76 25 41 1016.9 1016.8 85.6
20/08:55pm 17.0 10.6 16.8 99 0.1 S 46 76 25 41 1017.4 1017.3 77.6
20/08:54pm 16.9 10.9 16.9 100 0.0 S 44 69 24 37 1017.3 1017.2 75.6
20/08:36pm 17.5 14.2 17.0 97 0.3 S 30 48 16 26 1017.1 1017.0 57.4
20/08:30pm 17.7 14.9 17.2 97 0.3 S 28 39 15 21 1017.3 1017.2 56.2
20/08:26pm 17.7 14.9 17.2 97 0.3 SSW 28 39 15 21 1017.5 1017.4 56.0
20/08:00pm 17.6 13.6 16.6 94 0.6 S 33 50 18 27 1017.8 1017.7 51.8
20/07:48pm 17.6 13.8 16.6 94 0.6 S 32 50 17 27 1017.9 1017.8 50.2
20/07:30pm 17.8 15.7 16.3 91 0.9 S 22 32 12 17 1018.1 1018.0 48.8
20/07:18pm 17.9 15.0 16.0 89 1.1 S 26 39 14 21 1018.2 1018.1 48.0
20/07:00pm 17.8 16.2 16.6 93 0.7 S 20 30 11 16 1018.3 1018.2 46.6
20/06:49pm 17.7 16.2 16.7 94 0.6 SSW 20 32 11 17 1018.0 1017.9 46.6
20/06:30pm 16.8 15.1 16.3 97 0.3 SSW 20 30 11 16 1018.5 1018.4 46.2
20/05:53pm 16.3 14.9 15.6 96 0.4 WSW 17 28 9 15 1018.5 1018.4 41.0
20/05:48pm 16.4 14.7 15.7 96 0.4 WSW 19 28 10 15 1018.5 1018.4 40.2
20/05:30pm 16.9 14.5 15.5 91 0.8 SSW 22 32 12 17 1018.4 1018.3 39.6
20/05:00pm 16.5 15.2 15.8 96 0.4 SW 17 28 9 15 1018.7 1018.6 38.8
20/04:53pm 16.5 14.6 15.8 96 0.4 SW 20 28 11 15 1018.8 1018.7 38.8
20/04:30pm 16.3 14.0 15.8 97 0.3 SW 22 30 12 16 1018.6 1018.5 37.0
20/04:00pm 16.4 15.1 15.7 96 0.4 SSW 17 26 9 14 1018.8 1018.7 32.8
20/03:56pm 16.4 14.7 15.7 96 0.4 SSW 19 26 10 14 1018.8 1018.7 31.8
20/03:30pm 16.6 15.1 15.4 93 0.7 SSW 17 26 9 14 1019.0 1018.9 30.2
20/03:00pm 17.6 17.4 15.7 89 1.1 SSW 11 15 6 8 1018.8 1018.7 27.8
20/02:30pm 17.2 13.9 14.9 86 1.3 SSE 26 33 14 18 1019.2 1019.1 27.6
20/02:00pm 16.6 14.7 15.7 94 0.5 S 20 28 11 15 1019.1 1019.0 26.4
20/01:50pm 16.8 14.9 15.8 94 0.6 S 20 30 11 16 1019.2 1019.1 23.2
20/01:30pm 17.3 13.5 15.8 91 0.9 SSE 30 39 16 21 1019.2 1019.1 18.2
20/01:00pm 17.9 13.8 15.9 88 1.2 SSE 32 44 17 24 1019.2 1019.1 17.8
20/12:30pm 17.7 14.7 16.7 94 0.6 SSE 28 39 15 21 1019.3 1019.2 15.6
20/12:23pm 17.8 15.9 16.8 94 0.6 SSE 22 32 12 17 1019.6 1019.5 13.4
20/12:00pm 15.1 14.4 14.4 96 0.4 W 11 15 6 8 1020.0 1019.9 11.8
20/11:48am 17.4 15.8 16.4 94 0.6 S 20 32 11 17 1020.2 1020.1 10.6
20/11:30am 17.3 16.8 15.9 91 0.8 SSW 13 24 7 13 1020.5 1020.4 10.2
20/11:00am 15.1 15.3 14.6 97 0.3 NW 7 11 4 6 1021.0 1020.9 10.2
20/10:30am 15.2 15.5 14.5 96 0.4 NE 6 15 3 8 1021.5 1021.4 7.4
20/10:00am 15.1 13.0 14.6 97 0.3 WSW 19 28 10 15 1021.4 1021.3 3.2
20/09:55am 14.9 13.5 14.4 97 0.3 W 15 24 8 13 1021.4 1021.3 3.2
20/09:51am 14.7 12.7 14.0 96 0.4 WSW 17 26 9 14 1021.5 1021.4 2.4
20/09:30am 14.4 12.3 13.7 96 0.4 W 17 26 9 14 1021.7 1021.6 1.8
20/09:17am 14.3 11.8 13.4 94 0.5 W 19 26 10 14 1021.9 1021.8 0.4
20/09:16am 14.3 11.8 13.4 94 0.5 W 19 26 10 14 1021.9 1021.8 0.4
20/09:00am 14.2 11.4 13.3 94 0.5 W 20 26 11 14 1021.8 1021.7 5.0
20/08:30am 13.6 10.7 12.9 95 0.4 W 20 26 11 14 1022.2 1022.1 5.0
20/08:00am 13.2 10.8 12.5 95 0.4 W 17 24 9 13 1022.5 1022.4 5.0
20/07:37am 13.2 10.7 12.3 94 0.5 WSW 17 20 9 11 1022.2 1022.1 4.4
20/07:30am 13.2 10.3 12.3 94 0.5 WSW 19 26 10 14 1022.5 1022.4 4.2
20/07:19am 13.2 9.7 12.3 94 0.5 WSW 22 28 12 15 1022.1 1022.0 3.6
20/07:00am 13.2 10.1 12.3 94 0.5 W 20 28 11 15 1022.3 1022.2 3.4
20/06:30am 13.2 10.8 12.5 95 0.4 W 17 22 9 12 1021.7 1021.6 3.0
20/06:00am 13.4 10.4 12.5 94 0.5 WSW 20 26 11 14 1021.7 1021.6 2.4
20/05:30am 13.3 10.4 12.4 94 0.5 W 19 26 10 14 1022.0 1021.9 2.4
20/05:00am 13.4 10.6 12.5 94 0.5 WSW 19 26 10 14 1021.9 1021.8 2.2
20/04:30am 13.6 11.3 12.9 95 0.4 WSW 17 26 9 14 1021.8 1021.7 2.0
20/04:00am 13.6 10.9 12.9 95 0.4 WSW 19 32 10 17 1021.7 1021.6 1.2
20/03:30am 13.7 10.7 12.6 93 0.6 WSW 20 26 11 14 1021.6 1021.5 1.2
20/03:00am 13.7 11.0 12.8 94 0.5 WSW 19 26 10 14 1021.7 1021.6 1.2
20/02:30am 13.8 10.9 12.9 94 0.5 SW 20 28 11 15 1022.1 1022.0 1.0
20/02:17am 14.0 10.7 12.7 92 0.7 SW 22 30 12 16 1022.3 1022.2 1.0
20/02:00am 14.2 9.7 12.7 91 0.8 SW 28 37 15 20 1022.4 1022.3 1.0
20/01:30am 14.7 11.2 13.3 91 0.8 SW 24 32 13 17 1022.5 1022.4 1.0
20/01:00am 14.8 10.6 13.4 91 0.8 SW 28 39 15 21 1022.7 1022.6 1.0
20/12:30am 16.1 10.8 13.2 83 1.6 S 33 44 18 24 1022.9 1022.8 0.8
20/12:00am 16.6 11.6 14.1 85 1.4 S 33 48 18 26 1022.9 1022.8 0.4
 
Date/Time
EST
Tmp

°C
App
Tmp
°C
Dew
Point
°C
Rel
Hum
%
Delta-T

°C
Wind Press
QNH
hPa
Press
MSL
hPa
Rain
since
9 am
mm
Dir
 
Spd
km/h
Gust
km/h
Spd
kts
Gust
kts
19/11:30pm 16.4 11.7 14.3 87 1.2 S 32 48 17 26 1023.1 1023.0 0.4
19/11:28pm 16.5 12.1 14.0 85 1.4 S 30 48 16 26 1023.0 1022.9 0.4
19/11:16pm 16.3 11.5 14.0 86 1.3 SSW 32 46 17 25 1023.2 1023.1 0.4
19/11:04pm 16.1 12.3 14.7 91 0.8 SSW 28 39 15 21 1023.2 1023.1 0.4
19/11:00pm 16.2 12.4 14.6 90 0.9 SSW 28 39 15 21 1023.2 1023.1 0.4
19/10:30pm 16.3 12.0 14.4 88 1.1 SSW 30 37 16 20 1023.3 1023.2 0.0
19/10:00pm 17.7 12.5 12.8 73 2.7 S 32 46 17 25 1023.4 1023.3 0.0
19/09:34pm 17.8 12.8 13.4 75 2.5 S 32 50 17 27 1023.0 1022.9 0.0
19/09:30pm 17.7 12.6 13.6 77 2.3 S 33 50 18 27 1023.0 1022.9 0.0
19/09:00pm 17.5 11.9 13.4 77 2.3 S 35 48 19 26 1022.7 1022.6 0.0
19/08:30pm 17.7 12.3 14.0 79 2.1 S 35 46 19 25 1022.6 1022.5 0.0
19/08:15pm 18.0 13.6 14.1 78 2.2 S 30 48 16 26 1022.4 1022.3 0.0
19/08:00pm 18.1 13.6 13.9 76 2.4 S 30 44 16 24 1022.4 1022.3 0.0
19/07:30pm 18.2 13.9 14.4 78 2.2 S 30 37 16 20 1022.0 1021.9 0.0
19/07:04pm 18.3 13.5 13.9 75 2.5 S 32 50 17 27 1021.6 1021.5 0.0
19/07:00pm 18.3 14.3 14.1 76 2.4 S 28 44 15 24 1021.5 1021.4 0.0
19/06:30pm 18.1 14.3 14.8 81 1.9 S 28 39 15 21 1021.0 1020.9 0.0
19/06:00pm 18.4 14.6 14.8 79 2.1 S 28 37 15 20 1020.7 1020.6 0.0
19/05:30pm 18.4 14.7 15.1 81 1.9 S 28 44 15 24 1020.4 1020.3 0.0
19/05:00pm 18.5 14.8 15.1 80 2.0 S 28 39 15 21 1020.1 1020.0 0.0
19/04:30pm 18.8 14.2 15.0 78 2.2 S 33 46 18 25 1019.6 1019.5 0.0
19/04:00pm 19.5 15.2 15.8 79 2.2 S 33 41 18 22 1019.2 1019.1 0.0
19/03:30pm 20.1 15.9 15.7 76 2.6 S 32 44 17 24 1018.9 1018.8 0.0
19/03:00pm 20.6 16.9 15.9 74 2.8 SSW 30 37 16 20 1018.6 1018.5 0.0
19/02:30pm 20.8 18.2 13.9 64 4.0 S 20 32 11 17 1018.3 1018.2 0.0
19/02:00pm 21.6 18.1 12.2 55 5.3 S 22 30 12 16 1018.1 1018.0 0.0
19/01:30pm 22.2 19.5 10.3 46 6.5 SW 15 17 8 9 1018.1 1018.0 0.0
19/01:00pm 21.3 19.1 10.9 51 5.7 SW 13 15 7 8 1018.1 1018.0 0.0
19/12:30pm 19.9 20.9 14.4 70 3.2 SSW 2 9 1 5 1018.3 1018.2 0.0
19/12:00pm 19.6 16.8 11.2 58 4.6 SSW 17 24 9 13 1018.6 1018.5 0.0
19/11:30am 22.9 22.1 15.0 61 4.7 WSW 13 19 7 10 1018.3 1018.2 0.0
19/11:00am 23.0 21.7 15.9 64 4.3 W 17 24 9 13 1018.3 1018.2 0.0
19/10:30am 22.7 20.6 16.3 67 3.9 W 22 30 12 16 1018.4 1018.3 0.0
19/10:00am 21.9 19.5 16.4 71 3.3 WNW 24 32 13 17 1018.4 1018.3 0.0
19/09:30am 20.8 17.7 16.5 76 2.6 WNW 28 37 15 20 1018.5 1018.4 0.0
19/09:00am 19.4 17.1 16.7 84 1.6 WNW 24 30 13 16 1018.4 1018.3 8.0
19/08:30am 19.0 17.7 16.8 87 1.3 WNW 19 26 10 14 1017.7 1017.6 8.0
19/08:00am 18.0 18.2 16.8 93 0.7 W 11 13 6 7 1017.6 1017.5 8.0
19/07:30am 17.9 18.4 16.6 92 0.8 W 9 13 5 7 1017.2 1017.1 8.0
19/07:00am 17.4 17.5 16.6 95 0.5 NW 11 13 6 7 1016.7 1016.6 8.0
19/06:30am 17.2 16.5 16.5 96 0.4 NW 15 17 8 9 1016.3 1016.2 8.0
19/06:00am 17.4 18.3 16.6 95 0.5 NW 7 11 4 6 1016.2 1016.1 8.0
19/05:30am 17.6 17.7 16.6 94 0.6 NNW 11 13 6 7 1015.7 1015.6 8.0
19/05:00am 17.5 18.1 16.8 96 0.4 NNW 9 13 5 7 1015.3 1015.2 7.8
19/04:30am 17.6 18.2 16.8 95 0.5 NNW 9 13 5 7 1015.4 1015.3 7.6
19/04:00am 17.7 17.6 16.9 95 0.5 NW 13 15 7 8 1015.5 1015.4 6.8
19/03:30am 17.7 17.6 16.9 95 0.5 N 13 15 7 8 1015.0 1014.9 6.4
19/03:00am 17.6 17.4 16.8 95 0.5 N 13 20 7 11 1015.1 1015.0 6.2
19/02:59am 17.7 17.1 16.7 94 0.6 N 15 20 8 11 1015.1 1015.0 6.2
19/02:30am 18.0 17.5 17.0 94 0.6 NNW 15 22 8 12 1015.6 1015.5 3.4
19/02:16am 18.4 17.4 16.7 90 1.0 NW 17 24 9 13 1015.8 1015.7 1.8
19/02:00am 19.3 18.2 16.3 83 1.8 NW 17 26 9 14 1016.0 1015.9 0.6
19/01:30am 19.7 19.4 16.5 82 1.9 NW 13 17 7 9 1015.7 1015.6 0.4
19/01:00am 19.7 19.3 17.1 85 1.6 WNW 15 22 8 12 1015.8 1015.7 0.4
19/12:30am 21.0 20.2 16.0 73 3.0 W 15 20 8 11 1015.9 1015.8 0.0
19/12:00am 21.1 19.5 15.9 72 3.1 WNW 19 26 10 14 1015.7 1015.6 0.0
 
Date/Time
EST
Tmp

°C
App
Tmp
°C
Dew
Point
°C
Rel
Hum
%
Delta-T

°C
Wind Press
QNH
hPa
Press
MSL
hPa
Rain
since
9 am
mm
Dir
 
Spd
km/h
Gust
km/h
Spd
kts
Gust
kts
18/11:30pm 21.3 20.8 16.0 72 3.2 N 13 17 7 9 1015.1 1015.0 0.0
18/11:00pm 21.0 20.9 16.0 73 3.0 NNE 11 15 6 8 1014.9 1014.8 0.0
18/10:30pm 21.0 20.6 16.2 74 2.9 NNE 13 15 7 8 1015.2 1015.1 0.0
18/10:00pm 21.2 20.9 16.4 74 2.9 NNE 13 17 7 9 1015.5 1015.4 0.0
18/09:30pm 21.1 21.2 16.6 75 2.7 NNE 11 13 6 7 1015.7 1015.6 0.0
18/09:00pm 21.1 21.2 16.6 75 2.7 NNE 11 11 6 6 1015.6 1015.5 0.0
18/08:30pm 21.4 22.4 16.8 75 2.8 NNE 7 9 4 5 1015.4 1015.3 0.0
18/08:00pm 22.1 22.2 16.5 70 3.4 NNE 11 15 6 8 1015.2 1015.1 0.0
18/07:30pm 22.4 23.0 16.7 70 3.5 NNE 9 13 5 7 1015.0 1014.9 0.0
18/07:00pm 22.6 22.9 16.9 70 3.5 NNE 11 13 6 7 1014.9 1014.8 0.0
18/06:30pm 22.1 23.0 17.6 75 2.8 NE 9 13 5 7 1014.8 1014.7 0.0
18/06:00pm 22.1 23.2 17.9 77 2.6 NE 9 13 5 7 1014.7 1014.6 0.0
18/05:30pm 22.8 23.4 17.8 73 3.1 NE 11 15 6 8 1014.7 1014.6 0.0
18/05:00pm 23.3 23.4 17.5 70 3.6 NE 13 15 7 8 1014.8 1014.7 0.0
18/04:30pm 23.8 24.5 17.9 69 3.7 NE 11 13 6 7 1014.9 1014.8 0.0
18/04:00pm 24.2 24.5 18.0 68 3.9 NE 13 19 7 10 1014.8 1014.7 0.0
18/03:30pm 24.7 25.3 17.7 65 4.4 NE 11 13 6 7 1015.4 1015.3 0.0
18/03:00pm 25.1 25.8 17.0 60 5.0 NNE 9 13 5 7 1015.7 1015.6 0.0
18/02:30pm 25.4 24.7 15.3 53 6.1 NNE 13 17 7 9 1015.9 1015.8 0.0
18/02:00pm 25.8 25.1 15.4 52 6.3 NNE 13 19 7 10 1016.0 1015.9 0.0
18/01:30pm 25.4 25.8 16.3 57 5.6 NNE 9 19 5 10 1016.1 1016.0 0.0
18/01:00pm 25.2 25.1 15.0 53 6.1 NNE 9 13 5 7 1016.6 1016.5 0.0
18/12:30pm 25.7 26.2 17.5 60 5.1 N 11 15 6 8 1016.9 1016.8 0.0
18/12:00pm 24.1 24.9 18.2 69 3.7 NNE 11 15 6 8 1017.4 1017.3 0.0

Latest Capital City Observations: Canberra | Sydney | Melbourne | Brisbane | Adelaide | Perth | Hobart | Darwin

Other Formats:

Comma delimited format used in spreadsheet applications
http://www.bom.gov.au/fwo/IDN60901/IDN60901.94776.axf

JavaScript Object Notation format (JSON) in row-major order
http://www.bom.gov.au/fwo/IDN60901/IDN60901.94776.json